sensor_id;sensor_type;location;lat;lon;timestamp;P1;durP1;ratioP1;P2;durP2;ratioP2
17193;SDS011;8713;48.388;10.928;2023-05-07T00:00:57;4.18;;;2.90;;
17193;SDS011;8713;48.388;10.928;2023-05-07T00:02:28;5.95;;;3.28;;
17193;SDS011;8713;48.388;10.928;2023-05-07T00:03:58;6.70;;;3.40;;
17193;SDS011;8713;48.388;10.928;2023-05-07T00:05:28;4.40;;;3.10;;
17193;SDS011;8713;48.388;10.928;2023-05-07T00:06:57;6.72;;;3.45;;
17193;SDS011;8713;48.388;10.928;2023-05-07T00:08:26;5.53;;;3.28;;
17193;SDS011;8713;48.388;10.928;2023-05-07T00:09:56;3.85;;;3.00;;
17193;SDS011;8713;48.388;10.928;2023-05-07T00:11:26;6.18;;;3.20;;
17193;SDS011;8713;48.388;10.928;2023-05-07T00:12:57;4.10;;;3.10;;
17193;SDS011;8713;48.388;10.928;2023-05-07T00:14:27;4.05;;;2.90;;
17193;SDS011;8713;48.388;10.928;2023-05-07T00:15:56;3.95;;;3.13;;
17193;SDS011;8713;48.388;10.928;2023-05-07T00:17:26;4.13;;;3.17;;
17193;SDS011;8713;48.388;10.928;2023-05-07T00:18:55;5.57;;;3.60;;
17193;SDS011;8713;48.388;10.928;2023-05-07T00:20:25;5.35;;;3.10;;
17193;SDS011;8713;48.388;10.928;2023-05-07T00:21:55;4.45;;;2.97;;
17193;SDS011;8713;48.388;10.928;2023-05-07T00:23:25;3.92;;;2.83;;
17193;SDS011;8713;48.388;10.928;2023-05-07T00:24:54;5.10;;;2.88;;
17193;SDS011;8713;48.388;10.928;2023-05-07T00:26:24;6.80;;;2.97;;
17193;SDS011;8713;48.388;10.928;2023-05-07T00:27:54;4.43;;;2.55;;
17193;SDS011;8713;48.388;10.928;2023-05-07T00:29:23;4.93;;;2.67;;
17193;SDS011;8713;48.388;10.928;2023-05-07T00:30:53;3.53;;;2.67;;
17193;SDS011;8713;48.388;10.928;2023-05-07T00:32:23;4.38;;;2.20;;
17193;SDS011;8713;48.388;10.928;2023-05-07T00:33:52;3.28;;;2.25;;
17193;SDS011;8713;48.388;10.928;2023-05-07T00:35:22;3.45;;;2.20;;
17193;SDS011;8713;48.388;10.928;2023-05-07T00:36:52;4.97;;;2.53;;
17193;SDS011;8713;48.388;10.928;2023-05-07T00:38:22;4.55;;;2.30;;
17193;SDS011;8713;48.388;10.928;2023-05-07T00:39:51;4.00;;;2.45;;
17193;SDS011;8713;48.388;10.928;2023-05-07T00:41:21;2.92;;;2.10;;
17193;SDS011;8713;48.388;10.928;2023-05-07T00:42:51;3.17;;;2.47;;
17193;SDS011;8713;48.388;10.928;2023-05-07T00:44:26;4.05;;;2.47;;
17193;SDS011;8713;48.388;10.928;2023-05-07T00:45:55;3.67;;;2.38;;
17193;SDS011;8713;48.388;10.928;2023-05-07T00:47:25;2.75;;;2.22;;
17193;SDS011;8713;48.388;10.928;2023-05-07T00:48:55;2.97;;;2.08;;
17193;SDS011;8713;48.388;10.928;2023-05-07T00:50:25;4.03;;;2.17;;
17193;SDS011;8713;48.388;10.928;2023-05-07T00:51:56;3.30;;;2.20;;
17193;SDS011;8713;48.388;10.928;2023-05-07T00:53:26;3.13;;;2.05;;
17193;SDS011;8713;48.388;10.928;2023-05-07T00:54:56;3.63;;;2.38;;
17193;SDS011;8713;48.388;10.928;2023-05-07T00:56:26;2.88;;;2.33;;
17193;SDS011;8713;48.388;10.928;2023-05-07T00:57:56;2.33;;;1.80;;
17193;SDS011;8713;48.388;10.928;2023-05-07T00:59:26;2.70;;;1.90;;
17193;SDS011;8713;48.388;10.928;2023-05-07T01:00:55;2.78;;;1.95;;
17193;SDS011;8713;48.388;10.928;2023-05-07T01:02:25;2.45;;;2.08;;
17193;SDS011;8713;48.388;10.928;2023-05-07T01:03:55;3.92;;;2.78;;
17193;SDS011;8713;48.388;10.928;2023-05-07T01:05:25;2.47;;;2.13;;
17193;SDS011;8713;48.388;10.928;2023-05-07T01:06:56;4.30;;;2.33;;
17193;SDS011;8713;48.388;10.928;2023-05-07T01:08:27;2.42;;;2.22;;
17193;SDS011;8713;48.388;10.928;2023-05-07T01:09:58;3.80;;;2.42;;
17193;SDS011;8713;48.388;10.928;2023-05-07T08:16:21;2.08;;;1.75;;
17193;SDS011;8713;48.388;10.928;2023-05-07T08:17:30;2.42;;;1.90;;
17193;SDS011;8713;48.388;10.928;2023-05-07T08:18:43;2.75;;;1.98;;
17193;SDS011;8713;48.388;10.928;2023-05-07T08:19:52;2.90;;;1.95;;
17193;SDS011;8713;48.388;10.928;2023-05-07T08:21:20;4.55;;;2.47;;
17193;SDS011;8713;48.388;10.928;2023-05-07T08:22:30;4.15;;;2.50;;
17193;SDS011;8713;48.388;10.928;2023-05-07T08:23:39;4.03;;;2.20;;
17193;SDS011;8713;48.388;10.928;2023-05-07T08:24:49;5.68;;;2.45;;
17193;SDS011;8713;48.388;10.928;2023-05-07T08:25:59;5.00;;;2.28;;
17193;SDS011;8713;48.388;10.928;2023-05-07T08:27:08;3.40;;;2.20;;
17193;SDS011;8713;48.388;10.928;2023-05-07T08:28:18;2.72;;;2.00;;
17193;SDS011;8713;48.388;10.928;2023-05-07T08:29:28;4.03;;;1.92;;
17193;SDS011;8713;48.388;10.928;2023-05-07T08:30:38;2.35;;;1.73;;
17193;SDS011;8713;48.388;10.928;2023-05-07T08:31:47;3.70;;;2.50;;
17193;SDS011;8713;48.388;10.928;2023-05-07T08:32:56;2.78;;;2.17;;
17193;SDS011;8713;48.388;10.928;2023-05-07T08:34:06;2.97;;;2.30;;
17193;SDS011;8713;48.388;10.928;2023-05-07T08:35:17;3.05;;;2.10;;
17193;SDS011;8713;48.388;10.928;2023-05-07T08:36:27;4.13;;;2.25;;
17193;SDS011;8713;48.388;10.928;2023-05-07T08:37:37;3.70;;;2.40;;
17193;SDS011;8713;48.388;10.928;2023-05-07T08:38:46;2.97;;;1.73;;
17193;SDS011;8713;48.388;10.928;2023-05-07T08:39:56;1.60;;;1.50;;
17193;SDS011;8713;48.388;10.928;2023-05-07T08:41:10;2.25;;;1.60;;
17193;SDS011;8713;48.388;10.928;2023-05-07T08:42:20;4.53;;;2.40;;
17193;SDS011;8713;48.388;10.928;2023-05-07T08:43:30;2.85;;;2.20;;
17193;SDS011;8713;48.388;10.928;2023-05-07T08:44:42;5.18;;;2.45;;
17193;SDS011;8713;48.388;10.928;2023-05-07T08:45:56;3.20;;;2.28;;
17193;SDS011;8713;48.388;10.928;2023-05-07T08:47:10;3.22;;;2.38;;
17193;SDS011;8713;48.388;10.928;2023-05-07T08:48:21;3.83;;;2.20;;
17193;SDS011;8713;48.388;10.928;2023-05-07T08:49:38;2.22;;;1.80;;
17193;SDS011;8713;48.388;10.928;2023-05-07T08:50:50;2.95;;;2.05;;
17193;SDS011;8713;48.388;10.928;2023-05-07T08:52:00;3.40;;;2.00;;
17193;SDS011;8713;48.388;10.928;2023-05-07T08:53:10;5.10;;;2.10;;
17193;SDS011;8713;48.388;10.928;2023-05-07T08:54:21;2.85;;;2.30;;
17193;SDS011;8713;48.388;10.928;2023-05-07T08:55:30;2.33;;;1.63;;
17193;SDS011;8713;48.388;10.928;2023-05-07T08:56:40;3.25;;;1.92;;
17193;SDS011;8713;48.388;10.928;2023-05-07T08:57:50;3.03;;;1.70;;
17193;SDS011;8713;48.388;10.928;2023-05-07T08:59:01;2.42;;;1.65;;
17193;SDS011;8713;48.388;10.928;2023-05-07T09:00:12;4.03;;;1.52;;
17193;SDS011;8713;48.388;10.928;2023-05-07T09:01:23;1.17;;;1.05;;
17193;SDS011;8713;48.388;10.928;2023-05-07T09:02:35;4.35;;;1.45;;
17193;SDS011;8713;48.388;10.928;2023-05-07T09:03:45;1.80;;;1.25;;
17193;SDS011;8713;48.388;10.928;2023-05-07T09:04:56;2.88;;;1.88;;
17193;SDS011;8713;48.388;10.928;2023-05-07T09:06:05;1.77;;;1.42;;
17193;SDS011;8713;48.388;10.928;2023-05-07T09:07:15;3.28;;;1.80;;
17193;SDS011;8713;48.388;10.928;2023-05-07T09:08:26;2.80;;;1.52;;
17193;SDS011;8713;48.388;10.928;2023-05-07T09:09:38;2.92;;;1.40;;
17193;SDS011;8713;48.388;10.928;2023-05-07T09:10:49;3.22;;;1.90;;
17193;SDS011;8713;48.388;10.928;2023-05-07T09:11:59;3.75;;;1.63;;
17193;SDS011;8713;48.388;10.928;2023-05-07T09:13:11;2.25;;;1.42;;
17193;SDS011;8713;48.388;10.928;2023-05-07T09:14:42;1.90;;;1.40;;
17193;SDS011;8713;48.388;10.928;2023-05-07T09:16:11;1.52;;;1.27;;
17193;SDS011;8713;48.388;10.928;2023-05-07T09:17:21;2.42;;;1.50;;
17193;SDS011;8713;48.388;10.928;2023-05-07T09:18:53;3.22;;;1.27;;
17193;SDS011;8713;48.388;10.928;2023-05-07T09:20:05;1.48;;;1.38;;
17193;SDS011;8713;48.388;10.928;2023-05-07T09:21:34;2.58;;;1.17;;
17193;SDS011;8713;48.388;10.928;2023-05-07T09:23:06;4.43;;;2.00;;
17193;SDS011;8713;48.388;10.928;2023-05-07T09:24:16;2.63;;;1.27;;
17193;SDS011;8713;48.388;10.928;2023-05-07T09:25:30;2.78;;;1.30;;
17193;SDS011;8713;48.388;10.928;2023-05-07T09:26:53;2.58;;;1.42;;
17193;SDS011;8713;48.388;10.928;2023-05-07T09:28:22;3.95;;;1.75;;
17193;SDS011;8713;48.388;10.928;2023-05-07T09:29:50;3.67;;;1.58;;
17193;SDS011;8713;48.388;10.928;2023-05-07T09:31:18;6.07;;;1.52;;
17193;SDS011;8713;48.388;10.928;2023-05-07T09:32:50;1.98;;;1.00;;
17193;SDS011;8713;48.388;10.928;2023-05-07T09:34:21;3.75;;;1.45;;
17193;SDS011;8713;48.388;10.928;2023-05-07T09:35:51;1.77;;;1.13;;
17193;SDS011;8713;48.388;10.928;2023-05-07T09:37:20;3.13;;;1.38;;
17193;SDS011;8713;48.388;10.928;2023-05-07T09:38:48;3.67;;;1.63;;
17193;SDS011;8713;48.388;10.928;2023-05-07T09:40:21;2.92;;;0.85;;
17193;SDS011;8713;48.388;10.928;2023-05-07T09:41:52;2.13;;;1.00;;
17193;SDS011;8713;48.388;10.928;2023-05-07T09:43:33;1.17;;;0.88;;
17193;SDS011;8713;48.388;10.928;2023-05-07T09:45:07;1.58;;;1.10;;
17193;SDS011;8713;48.388;10.928;2023-05-07T09:46:39;3.22;;;1.02;;
17193;SDS011;8713;48.388;10.928;2023-05-07T09:48:18;1.77;;;1.00;;
17193;SDS011;8713;48.388;10.928;2023-05-07T09:49:29;2.92;;;1.20;;
17193;SDS011;8713;48.388;10.928;2023-05-07T09:52:55;2.28;;;1.10;;
17193;SDS011;8713;48.388;10.928;2023-05-07T09:54:26;1.65;;;1.08;;
17193;SDS011;8713;48.388;10.928;2023-05-07T09:55:59;2.05;;;1.40;;
17193;SDS011;8713;48.388;10.928;2023-05-07T09:57:10;1.38;;;0.80;;
17193;SDS011;8713;48.388;10.928;2023-05-07T09:58:22;1.83;;;1.00;;
17193;SDS011;8713;48.388;10.928;2023-05-07T09:59:33;0.88;;;0.73;;
17193;SDS011;8713;48.388;10.928;2023-05-07T10:00:46;1.65;;;0.88;;
17193;SDS011;8713;48.388;10.928;2023-05-07T10:01:58;4.18;;;1.10;;
17193;SDS011;8713;48.388;10.928;2023-05-07T10:03:11;3.28;;;1.08;;
17193;SDS011;8713;48.388;10.928;2023-05-07T10:04:35;1.52;;;1.10;;
17193;SDS011;8713;48.388;10.928;2023-05-07T10:05:44;1.85;;;0.90;;
17193;SDS011;8713;48.388;10.928;2023-05-07T10:06:59;2.10;;;1.00;;
17193;SDS011;8713;48.388;10.928;2023-05-07T10:08:09;2.85;;;1.10;;
17193;SDS011;8713;48.388;10.928;2023-05-07T10:09:20;1.20;;;0.90;;
17193;SDS011;8713;48.388;10.928;2023-05-07T10:10:50;1.17;;;0.90;;
17193;SDS011;8713;48.388;10.928;2023-05-07T10:12:05;2.15;;;0.80;;
17193;SDS011;8713;48.388;10.928;2023-05-07T10:13:33;1.80;;;1.13;;
17193;SDS011;8713;48.388;10.928;2023-05-07T10:15:06;2.15;;;0.90;;
17193;SDS011;8713;48.388;10.928;2023-05-07T10:16:36;1.38;;;0.70;;
17193;SDS011;8713;48.388;10.928;2023-05-07T10:18:07;2.15;;;0.80;;
17193;SDS011;8713;48.388;10.928;2023-05-07T10:19:36;0.60;;;0.60;;
17193;SDS011;8713;48.388;10.928;2023-05-07T10:21:01;0.85;;;0.68;;
17193;SDS011;8713;48.388;10.928;2023-05-07T10:22:43;3.47;;;0.93;;
17193;SDS011;8713;48.388;10.928;2023-05-07T10:24:33;1.45;;;0.98;;
17193;SDS011;8713;48.388;10.928;2023-05-07T10:26:05;1.25;;;0.90;;
17193;SDS011;8713;48.388;10.928;2023-05-07T10:27:35;0.88;;;0.80;;
17193;SDS011;8713;48.388;10.928;2023-05-07T10:29:11;2.20;;;1.20;;
17193;SDS011;8713;48.388;10.928;2023-05-07T10:32:45;1.25;;;1.00;;
17193;SDS011;8713;48.388;10.928;2023-05-07T10:34:29;2.70;;;1.30;;
17193;SDS011;8713;48.388;10.928;2023-05-07T10:35:49;1.25;;;0.93;;
17193;SDS011;8713;48.388;10.928;2023-05-07T10:36:59;1.60;;;1.10;;
17193;SDS011;8713;48.388;10.928;2023-05-07T10:38:27;2.10;;;1.00;;
17193;SDS011;8713;48.388;10.928;2023-05-07T10:39:55;1.83;;;0.82;;
17193;SDS011;8713;48.388;10.928;2023-05-07T10:41:27;1.25;;;0.90;;
17193;SDS011;8713;48.388;10.928;2023-05-07T10:42:55;3.00;;;1.35;;
17193;SDS011;8713;48.388;10.928;2023-05-07T10:44:29;3.85;;;1.80;;
17193;SDS011;8713;48.388;10.928;2023-05-07T10:46:09;2.08;;;1.20;;
17193;SDS011;8713;48.388;10.928;2023-05-07T10:51:22;1.77;;;0.70;;
17193;SDS011;8713;48.388;10.928;2023-05-07T10:54:44;0.80;;;0.70;;
17193;SDS011;8713;48.388;10.928;2023-05-07T10:57:48;1.50;;;0.95;;
17193;SDS011;8713;48.388;10.928;2023-05-07T10:59:30;1.67;;;0.80;;
17193;SDS011;8713;48.388;10.928;2023-05-07T11:01:04;0.80;;;0.80;;
17193;SDS011;8713;48.388;10.928;2023-05-07T11:04:34;1.58;;;0.70;;
17193;SDS011;8713;48.388;10.928;2023-05-07T11:06:23;1.65;;;0.77;;
17193;SDS011;8713;48.388;10.928;2023-05-07T11:08:04;1.00;;;0.73;;
17193;SDS011;8713;48.388;10.928;2023-05-07T11:15:46;0.95;;;0.88;;
17193;SDS011;8713;48.388;10.928;2023-05-07T11:17:13;2.03;;;0.90;;
17193;SDS011;8713;48.388;10.928;2023-05-07T11:18:49;0.82;;;0.75;;
17193;SDS011;8713;48.388;10.928;2023-05-07T11:22:46;1.48;;;0.88;;
17193;SDS011;8713;48.388;10.928;2023-05-07T11:24:21;1.02;;;0.85;;
17193;SDS011;8713;48.388;10.928;2023-05-07T11:27:22;1.85;;;1.00;;
17193;SDS011;8713;48.388;10.928;2023-05-07T11:28:51;1.52;;;0.90;;
17193;SDS011;8713;48.388;10.928;2023-05-07T11:30:02;1.90;;;1.15;;
17193;SDS011;8713;48.388;10.928;2023-05-07T11:31:12;5.15;;;1.92;;
17193;SDS011;8713;48.388;10.928;2023-05-07T11:32:23;4.50;;;1.30;;
17193;SDS011;8713;48.388;10.928;2023-05-07T11:33:37;1.10;;;0.85;;
17193;SDS011;8713;48.388;10.928;2023-05-07T11:34:52;1.73;;;0.85;;
17193;SDS011;8713;48.388;10.928;2023-05-07T11:36:03;1.65;;;1.05;;
17193;SDS011;8713;48.388;10.928;2023-05-07T11:37:18;1.02;;;0.90;;
17193;SDS011;8713;48.388;10.928;2023-05-07T11:38:41;2.47;;;1.02;;
17193;SDS011;8713;48.388;10.928;2023-05-07T11:39:50;2.17;;;1.17;;
17193;SDS011;8713;48.388;10.928;2023-05-07T11:41:07;1.42;;;1.25;;
17193;SDS011;8713;48.388;10.928;2023-05-07T11:42:37;1.42;;;1.00;;
17193;SDS011;8713;48.388;10.928;2023-05-07T11:44:06;1.45;;;1.00;;
17193;SDS011;8713;48.388;10.928;2023-05-07T11:45:34;1.92;;;1.30;;
17193;SDS011;8713;48.388;10.928;2023-05-07T11:47:03;2.88;;;1.58;;
17193;SDS011;8713;48.388;10.928;2023-05-07T11:48:32;3.45;;;1.58;;
17193;SDS011;8713;48.388;10.928;2023-05-07T11:50:03;1.52;;;1.00;;
17193;SDS011;8713;48.388;10.928;2023-05-07T11:51:35;3.15;;;1.10;;
17193;SDS011;8713;48.388;10.928;2023-05-07T11:53:07;2.35;;;1.20;;
17193;SDS011;8713;48.388;10.928;2023-05-07T11:54:36;1.40;;;0.90;;
17193;SDS011;8713;48.388;10.928;2023-05-07T11:56:10;2.63;;;1.08;;
17193;SDS011;8713;48.388;10.928;2023-05-07T11:57:22;1.40;;;1.13;;
17193;SDS011;8713;48.388;10.928;2023-05-07T11:58:33;2.22;;;1.00;;
17193;SDS011;8713;48.388;10.928;2023-05-07T11:59:42;1.95;;;1.00;;
17193;SDS011;8713;48.388;10.928;2023-05-07T12:00:53;1.38;;;1.00;;
17193;SDS011;8713;48.388;10.928;2023-05-07T12:02:02;2.83;;;1.08;;
17193;SDS011;8713;48.388;10.928;2023-05-07T12:03:12;1.00;;;0.90;;
17193;SDS011;8713;48.388;10.928;2023-05-07T12:04:22;1.70;;;1.10;;
17193;SDS011;8713;48.388;10.928;2023-05-07T12:05:31;2.50;;;1.20;;
17193;SDS011;8713;48.388;10.928;2023-05-07T12:06:40;0.95;;;0.80;;
17193;SDS011;8713;48.388;10.928;2023-05-07T12:07:55;2.35;;;0.90;;
17193;SDS011;8713;48.388;10.928;2023-05-07T12:09:05;0.88;;;0.80;;
17193;SDS011;8713;48.388;10.928;2023-05-07T12:10:29;2.00;;;1.15;;
17193;SDS011;8713;48.388;10.928;2023-05-07T12:11:57;1.30;;;1.10;;
17193;SDS011;8713;48.388;10.928;2023-05-07T12:13:31;2.28;;;1.17;;
17193;SDS011;8713;48.388;10.928;2023-05-07T12:15:00;2.15;;;1.17;;
17193;SDS011;8713;48.388;10.928;2023-05-07T12:16:29;1.95;;;1.23;;
17193;SDS011;8713;48.388;10.928;2023-05-07T12:17:57;1.20;;;1.10;;
17193;SDS011;8713;48.388;10.928;2023-05-07T12:19:07;1.20;;;1.00;;
17193;SDS011;8713;48.388;10.928;2023-05-07T12:20:36;4.72;;;1.17;;
17193;SDS011;8713;48.388;10.928;2023-05-07T12:22:04;1.80;;;1.10;;
17193;SDS011;8713;48.388;10.928;2023-05-07T12:23:34;1.23;;;1.02;;
17193;SDS011;8713;48.388;10.928;2023-05-07T12:25:03;2.90;;;1.00;;
17193;SDS011;8713;48.388;10.928;2023-05-07T12:26:36;2.20;;;1.00;;
17193;SDS011;8713;48.388;10.928;2023-05-07T12:28:07;1.52;;;0.98;;
17193;SDS011;8713;48.388;10.928;2023-05-07T12:29:35;2.70;;;1.10;;
17193;SDS011;8713;48.388;10.928;2023-05-07T12:31:06;1.45;;;1.10;;
17193;SDS011;8713;48.388;10.928;2023-05-07T12:32:34;1.95;;;1.20;;
17193;SDS011;8713;48.388;10.928;2023-05-07T12:34:04;1.98;;;1.00;;
17193;SDS011;8713;48.388;10.928;2023-05-07T12:35:36;4.43;;;1.00;;
17193;SDS011;8713;48.388;10.928;2023-05-07T12:37:07;2.58;;;1.23;;
17193;SDS011;8713;48.388;10.928;2023-05-07T12:38:38;1.95;;;1.27;;
17193;SDS011;8713;48.388;10.928;2023-05-07T12:40:08;1.77;;;1.13;;
17193;SDS011;8713;48.388;10.928;2023-05-07T12:43:27;2.13;;;1.02;;
17193;SDS011;8713;48.388;10.928;2023-05-07T12:44:56;2.95;;;1.00;;
17193;SDS011;8713;48.388;10.928;2023-05-07T12:46:24;1.83;;;1.10;;
17193;SDS011;8713;48.388;10.928;2023-05-07T12:47:52;1.60;;;1.00;;
17193;SDS011;8713;48.388;10.928;2023-05-07T12:49:20;2.05;;;1.17;;
17193;SDS011;8713;48.388;10.928;2023-05-07T12:50:51;1.88;;;0.98;;
17193;SDS011;8713;48.388;10.928;2023-05-07T12:52:11;3.03;;;1.30;;
17193;SDS011;8713;48.388;10.928;2023-05-07T12:53:40;2.10;;;1.15;;
17193;SDS011;8713;48.388;10.928;2023-05-07T12:55:12;1.38;;;1.20;;
17193;SDS011;8713;48.388;10.928;2023-05-07T12:56:42;2.08;;;1.13;;
17193;SDS011;8713;48.388;10.928;2023-05-07T12:58:22;2.15;;;1.15;;
17193;SDS011;8713;48.388;10.928;2023-05-07T12:59:41;3.55;;;1.20;;
17193;SDS011;8713;48.388;10.928;2023-05-07T13:01:09;1.30;;;0.90;;
17193;SDS011;8713;48.388;10.928;2023-05-07T13:02:44;2.28;;;1.05;;
17193;SDS011;8713;48.388;10.928;2023-05-07T13:04:00;1.58;;;0.93;;
17193;SDS011;8713;48.388;10.928;2023-05-07T13:05:30;2.78;;;1.20;;
17193;SDS011;8713;48.388;10.928;2023-05-07T13:06:59;4.13;;;1.17;;
17193;SDS011;8713;48.388;10.928;2023-05-07T13:08:33;1.55;;;1.10;;
17193;SDS011;8713;48.388;10.928;2023-05-07T13:10:05;1.00;;;0.90;;
17193;SDS011;8713;48.388;10.928;2023-05-07T13:11:34;2.63;;;1.17;;
17193;SDS011;8713;48.388;10.928;2023-05-07T13:13:02;1.55;;;1.10;;
17193;SDS011;8713;48.388;10.928;2023-05-07T13:14:31;2.47;;;1.10;;
17193;SDS011;8713;48.388;10.928;2023-05-07T13:15:59;1.85;;;1.20;;
17193;SDS011;8713;48.388;10.928;2023-05-07T13:17:28;5.63;;;1.58;;
17193;SDS011;8713;48.388;10.928;2023-05-07T13:18:59;2.63;;;1.40;;
17193;SDS011;8713;48.388;10.928;2023-05-07T13:20:27;2.25;;;1.42;;
17193;SDS011;8713;48.388;10.928;2023-05-07T13:21:56;2.00;;;1.40;;
17193;SDS011;8713;48.388;10.928;2023-05-07T13:23:24;3.17;;;1.10;;
17193;SDS011;8713;48.388;10.928;2023-05-07T13:24:54;3.97;;;1.27;;
17193;SDS011;8713;48.388;10.928;2023-05-07T13:26:23;2.22;;;1.20;;
17193;SDS011;8713;48.388;10.928;2023-05-07T13:27:51;2.13;;;1.10;;
17193;SDS011;8713;48.388;10.928;2023-05-07T13:29:20;1.38;;;0.98;;
17193;SDS011;8713;48.388;10.928;2023-05-07T13:30:53;2.33;;;1.02;;
17193;SDS011;8713;48.388;10.928;2023-05-07T13:32:22;1.95;;;1.05;;
17193;SDS011;8713;48.388;10.928;2023-05-07T13:33:50;3.08;;;0.98;;
17193;SDS011;8713;48.388;10.928;2023-05-07T13:35:20;5.05;;;1.10;;
17193;SDS011;8713;48.388;10.928;2023-05-07T13:36:48;2.97;;;1.20;;
17193;SDS011;8713;48.388;10.928;2023-05-07T13:38:17;1.42;;;1.00;;
17193;SDS011;8713;48.388;10.928;2023-05-07T13:39:46;1.58;;;1.00;;
17193;SDS011;8713;48.388;10.928;2023-05-07T13:41:15;2.05;;;1.10;;
17193;SDS011;8713;48.388;10.928;2023-05-07T13:42:43;2.35;;;1.00;;
17193;SDS011;8713;48.388;10.928;2023-05-07T13:44:11;2.00;;;1.05;;
17193;SDS011;8713;48.388;10.928;2023-05-07T13:45:40;3.35;;;0.90;;
17193;SDS011;8713;48.388;10.928;2023-05-07T13:47:08;1.63;;;0.98;;
17193;SDS011;8713;48.388;10.928;2023-05-07T13:48:36;1.40;;;0.90;;
17193;SDS011;8713;48.388;10.928;2023-05-07T13:50:05;1.45;;;1.00;;
17193;SDS011;8713;48.388;10.928;2023-05-07T13:51:34;1.00;;;0.90;;
17193;SDS011;8713;48.388;10.928;2023-05-07T13:53:02;1.35;;;1.00;;
17193;SDS011;8713;48.388;10.928;2023-05-07T13:54:31;1.95;;;1.05;;
17193;SDS011;8713;48.388;10.928;2023-05-07T13:56:01;1.10;;;0.85;;
17193;SDS011;8713;48.388;10.928;2023-05-07T13:57:33;3.15;;;1.27;;
17193;SDS011;8713;48.388;10.928;2023-05-07T13:59:03;2.00;;;1.08;;
17193;SDS011;8713;48.388;10.928;2023-05-07T14:00:32;1.60;;;1.10;;
17193;SDS011;8713;48.388;10.928;2023-05-07T14:02:02;2.15;;;1.25;;
17193;SDS011;8713;48.388;10.928;2023-05-07T14:03:12;16.58;;;7.45;;
17193;SDS011;8713;48.388;10.928;2023-05-07T14:04:21;5.18;;;2.85;;
17193;SDS011;8713;48.388;10.928;2023-05-07T14:05:49;3.92;;;2.80;;
17193;SDS011;8713;48.388;10.928;2023-05-07T14:07:17;7.72;;;3.42;;
17193;SDS011;8713;48.388;10.928;2023-05-07T14:08:47;2.03;;;1.52;;
17193;SDS011;8713;48.388;10.928;2023-05-07T14:10:16;3.25;;;1.88;;
17193;SDS011;8713;48.388;10.928;2023-05-07T14:11:25;5.38;;;2.33;;
17193;SDS011;8713;48.388;10.928;2023-05-07T14:12:53;5.80;;;3.45;;
17193;SDS011;8713;48.388;10.928;2023-05-07T14:14:22;3.97;;;1.67;;
17193;SDS011;8713;48.388;10.928;2023-05-07T14:15:52;1.73;;;1.10;;
17193;SDS011;8713;48.388;10.928;2023-05-07T14:17:01;4.35;;;2.15;;
17193;SDS011;8713;48.388;10.928;2023-05-07T14:18:29;2.30;;;1.77;;
17193;SDS011;8713;48.388;10.928;2023-05-07T14:19:58;4.07;;;2.55;;
17193;SDS011;8713;48.388;10.928;2023-05-07T14:21:27;4.40;;;2.75;;
17193;SDS011;8713;48.388;10.928;2023-05-07T14:22:57;3.63;;;2.65;;
17193;SDS011;8713;48.388;10.928;2023-05-07T14:24:25;2.00;;;1.42;;
17193;SDS011;8713;48.388;10.928;2023-05-07T14:25:53;6.05;;;3.38;;
17193;SDS011;8713;48.388;10.928;2023-05-07T14:27:03;3.17;;;2.05;;
17193;SDS011;8713;48.388;10.928;2023-05-07T14:28:31;2.53;;;1.30;;
17193;SDS011;8713;48.388;10.928;2023-05-07T14:29:59;1.63;;;1.10;;
17193;SDS011;8713;48.388;10.928;2023-05-07T14:31:27;2.85;;;1.90;;
17193;SDS011;8713;48.388;10.928;2023-05-07T14:32:56;2.95;;;1.70;;
17193;SDS011;8713;48.388;10.928;2023-05-07T14:34:24;3.00;;;1.50;;
17193;SDS011;8713;48.388;10.928;2023-05-07T14:35:53;4.80;;;2.08;;
17193;SDS011;8713;48.388;10.928;2023-05-07T14:37:21;2.08;;;1.55;;
17193;SDS011;8713;48.388;10.928;2023-05-07T14:38:31;5.50;;;3.17;;
17193;SDS011;8713;48.388;10.928;2023-05-07T14:39:41;2.33;;;1.42;;
17193;SDS011;8713;48.388;10.928;2023-05-07T14:40:50;4.90;;;1.80;;
17193;SDS011;8713;48.388;10.928;2023-05-07T14:42:13;2.00;;;1.10;;
17193;SDS011;8713;48.388;10.928;2023-05-07T14:43:42;4.80;;;2.28;;
17193;SDS011;8713;48.388;10.928;2023-05-07T14:45:11;2.50;;;1.42;;
17193;SDS011;8713;48.388;10.928;2023-05-07T14:46:40;1.90;;;1.27;;
17193;SDS011;8713;48.388;10.928;2023-05-07T14:48:08;1.38;;;1.20;;
17193;SDS011;8713;48.388;10.928;2023-05-07T14:49:24;4.72;;;1.80;;
17193;SDS011;8713;48.388;10.928;2023-05-07T14:50:53;3.38;;;1.50;;
17193;SDS011;8713;48.388;10.928;2023-05-07T14:52:23;3.13;;;1.20;;
17193;SDS011;8713;48.388;10.928;2023-05-07T14:53:51;1.85;;;1.27;;
17193;SDS011;8713;48.388;10.928;2023-05-07T14:55:19;4.22;;;2.17;;
17193;SDS011;8713;48.388;10.928;2023-05-07T14:56:48;1.92;;;1.42;;
17193;SDS011;8713;48.388;10.928;2023-05-07T14:57:57;2.33;;;1.40;;
17193;SDS011;8713;48.388;10.928;2023-05-07T14:59:26;3.75;;;2.38;;
17193;SDS011;8713;48.388;10.928;2023-05-07T15:00:54;3.97;;;2.30;;
17193;SDS011;8713;48.388;10.928;2023-05-07T15:02:24;7.63;;;3.28;;
17193;SDS011;8713;48.388;10.928;2023-05-07T15:03:34;4.15;;;2.42;;
17193;SDS011;8713;48.388;10.928;2023-05-07T15:05:02;4.45;;;2.67;;
17193;SDS011;8713;48.388;10.928;2023-05-07T15:06:30;6.10;;;3.35;;
17193;SDS011;8713;48.388;10.928;2023-05-07T15:07:59;7.70;;;4.20;;
17193;SDS011;8713;48.388;10.928;2023-05-07T15:09:29;3.80;;;2.65;;
17193;SDS011;8713;48.388;10.928;2023-05-07T15:10:57;3.92;;;2.25;;
17193;SDS011;8713;48.388;10.928;2023-05-07T15:12:26;2.88;;;1.73;;
17193;SDS011;8713;48.388;10.928;2023-05-07T15:13:54;3.22;;;1.50;;
17193;SDS011;8713;48.388;10.928;2023-05-07T15:15:22;2.47;;;1.98;;
17193;SDS011;8713;48.388;10.928;2023-05-07T15:16:51;3.10;;;1.30;;
17193;SDS011;8713;48.388;10.928;2023-05-07T15:18:20;2.17;;;1.38;;
17193;SDS011;8713;48.388;10.928;2023-05-07T15:19:29;1.58;;;1.48;;
17193;SDS011;8713;48.388;10.928;2023-05-07T15:20:57;1.23;;;1.10;;
17193;SDS011;8713;48.388;10.928;2023-05-07T15:22:26;2.22;;;1.23;;
17193;SDS011;8713;48.388;10.928;2023-05-07T15:23:54;2.33;;;1.33;;
17193;SDS011;8713;48.388;10.928;2023-05-07T15:25:23;3.92;;;1.63;;
17193;SDS011;8713;48.388;10.928;2023-05-07T15:26:51;2.20;;;1.50;;
17193;SDS011;8713;48.388;10.928;2023-05-07T15:28:19;2.40;;;1.20;;
17193;SDS011;8713;48.388;10.928;2023-05-07T15:29:48;2.85;;;1.40;;
17193;SDS011;8713;48.388;10.928;2023-05-07T15:31:18;3.08;;;1.60;;
17193;SDS011;8713;48.388;10.928;2023-05-07T15:32:46;5.22;;;2.20;;
17193;SDS011;8713;48.388;10.928;2023-05-07T15:34:14;2.92;;;1.52;;
17193;SDS011;8713;48.388;10.928;2023-05-07T15:35:43;2.42;;;1.42;;
17193;SDS011;8713;48.388;10.928;2023-05-07T15:37:11;2.08;;;1.20;;
17193;SDS011;8713;48.388;10.928;2023-05-07T15:38:40;3.88;;;1.40;;
17193;SDS011;8713;48.388;10.928;2023-05-07T15:40:08;3.60;;;1.30;;
17193;SDS011;8713;48.388;10.928;2023-05-07T15:41:38;4.53;;;1.92;;
17193;SDS011;8713;48.388;10.928;2023-05-07T15:43:06;1.75;;;1.30;;
17193;SDS011;8713;48.388;10.928;2023-05-07T15:44:16;3.47;;;1.50;;
17193;SDS011;8713;48.388;10.928;2023-05-07T15:45:25;1.83;;;1.10;;
17193;SDS011;8713;48.388;10.928;2023-05-07T15:46:35;2.10;;;1.65;;
17193;SDS011;8713;48.388;10.928;2023-05-07T15:47:44;3.03;;;1.50;;
17193;SDS011;8713;48.388;10.928;2023-05-07T15:48:54;5.93;;;2.60;;
17193;SDS011;8713;48.388;10.928;2023-05-07T15:50:04;3.42;;;1.73;;
17193;SDS011;8713;48.388;10.928;2023-05-07T15:51:14;3.03;;;1.60;;
17193;SDS011;8713;48.388;10.928;2023-05-07T15:52:23;1.77;;;1.50;;
17193;SDS011;8713;48.388;10.928;2023-05-07T15:53:52;1.92;;;1.60;;
17193;SDS011;8713;48.388;10.928;2023-05-07T15:55:17;2.97;;;1.20;;
17193;SDS011;8713;48.388;10.928;2023-05-07T15:56:46;3.65;;;1.38;;
17193;SDS011;8713;48.388;10.928;2023-05-07T15:58:16;3.20;;;1.70;;